sensor_id;sensor_type;location;lat;lon;timestamp;pressure;altitude;pressure_sealevel;temperature;humidity
71805;BME280;59654;52.216;5.616;2023-03-14T00:00:26;98608.44;;;8.70;95.26
71805;BME280;59654;52.216;5.616;2023-03-14T00:00:57;98610.91;;;8.73;95.25
71805;BME280;59654;52.216;5.616;2023-03-14T00:01:28;98612.59;;;8.74;95.94
71805;BME280;59654;52.216;5.616;2023-03-14T00:01:59;98620.50;;;8.76;94.78
71805;BME280;59654;52.216;5.616;2023-03-14T00:02:30;98611.47;;;8.78;95.00
71805;BME280;59654;52.216;5.616;2023-03-14T00:03:01;98615.84;;;8.79;94.51
71805;BME280;59654;52.216;5.616;2023-03-14T00:03:32;98612.34;;;8.79;94.73
71805;BME280;59654;52.216;5.616;2023-03-14T00:04:05;98616.59;;;8.81;94.03
71805;BME280;59654;52.216;5.616;2023-03-14T00:04:36;98609.47;;;8.82;94.88
71805;BME280;59654;52.216;5.616;2023-03-14T00:05:08;98621.91;;;8.81;94.49
71805;BME280;59654;52.216;5.616;2023-03-14T00:05:39;98614.03;;;8.80;94.90
71805;BME280;59654;52.216;5.616;2023-03-14T00:06:10;98623.81;;;8.79;94.03
71805;BME280;59654;52.216;5.616;2023-03-14T00:06:42;98622.22;;;8.77;93.91
71805;BME280;59654;52.216;5.616;2023-03-14T00:07:14;98625.72;;;8.77;94.17
71805;BME280;59654;52.216;5.616;2023-03-14T00:07:45;98616.91;;;8.77;94.96
71805;BME280;59654;52.216;5.616;2023-03-14T00:08:16;98619.47;;;8.78;94.49
71805;BME280;59654;52.216;5.616;2023-03-14T00:08:47;98626.56;;;8.78;94.27
71805;BME280;59654;52.216;5.616;2023-03-14T00:09:18;98621.34;;;8.76;93.91
71805;BME280;59654;52.216;5.616;2023-03-14T00:09:49;98624.00;;;8.76;94.97
71805;BME280;59654;52.216;5.616;2023-03-14T00:10:20;98619.72;;;8.74;94.32
71805;BME280;59654;52.216;5.616;2023-03-14T00:10:51;98623.31;;;8.73;95.08
71805;BME280;59654;52.216;5.616;2023-03-14T00:11:23;98620.66;;;8.73;94.31
71805;BME280;59654;52.216;5.616;2023-03-14T00:11:53;98624.06;;;8.75;93.87
71805;BME280;59654;52.216;5.616;2023-03-14T00:12:24;98614.41;;;8.74;94.56
71805;BME280;59654;52.216;5.616;2023-03-14T00:12:55;98622.38;;;8.74;94.85
71805;BME280;59654;52.216;5.616;2023-03-14T00:13:26;98618.75;;;8.75;95.04
71805;BME280;59654;52.216;5.616;2023-03-14T00:13:57;98615.34;;;8.73;94.36
71805;BME280;59654;52.216;5.616;2023-03-14T00:14:31;98621.41;;;8.75;94.99
71805;BME280;59654;52.216;5.616;2023-03-14T00:15:02;98621.41;;;8.75;94.22
71805;BME280;59654;52.216;5.616;2023-03-14T00:15:35;98606.34;;;8.75;94.85
71805;BME280;59654;52.216;5.616;2023-03-14T00:16:09;98620.41;;;8.77;94.17
71805;BME280;59654;52.216;5.616;2023-03-14T00:16:45;98613.44;;;8.75;94.62
71805;BME280;59654;52.216;5.616;2023-03-14T00:17:17;98611.75;;;8.74;93.81
71805;BME280;59654;52.216;5.616;2023-03-14T00:17:47;98614.69;;;8.69;94.37
71805;BME280;59654;52.216;5.616;2023-03-14T00:18:18;98611.31;;;8.67;94.33
71805;BME280;59654;52.216;5.616;2023-03-14T00:18:50;98617.59;;;8.66;94.41
71805;BME280;59654;52.216;5.616;2023-03-14T00:19:21;98622.81;;;8.68;94.38
71805;BME280;59654;52.216;5.616;2023-03-14T00:19:52;98615.69;;;8.68;94.68
71805;BME280;59654;52.216;5.616;2023-03-14T00:20:24;98613.03;;;8.68;94.61
71805;BME280;59654;52.216;5.616;2023-03-14T00:20:58;98612.91;;;8.70;94.87
71805;BME280;59654;52.216;5.616;2023-03-14T00:21:29;98609.38;;;8.69;95.27
71805;BME280;59654;52.216;5.616;2023-03-14T00:22:00;98613.03;;;8.68;94.89
71805;BME280;59654;52.216;5.616;2023-03-14T00:22:31;98615.56;;;8.70;94.99
71805;BME280;59654;52.216;5.616;2023-03-14T00:23:02;98617.50;;;8.68;94.45
71805;BME280;59654;52.216;5.616;2023-03-14T00:23:35;98611.31;;;8.67;94.81
71805;BME280;59654;52.216;5.616;2023-03-14T00:24:08;98614.69;;;8.69;94.91
71805;BME280;59654;52.216;5.616;2023-03-14T00:24:39;98612.03;;;8.69;94.58
71805;BME280;59654;52.216;5.616;2023-03-14T00:25:11;98613.88;;;8.69;94.96
71805;BME280;59654;52.216;5.616;2023-03-14T00:25:42;98616.31;;;8.72;95.43
71805;BME280;59654;52.216;5.616;2023-03-14T00:26:15;98609.28;;;8.71;94.71
71805;BME280;59654;52.216;5.616;2023-03-14T00:26:48;98622.47;;;8.72;95.05
71805;BME280;59654;52.216;5.616;2023-03-14T00:27:19;98617.84;;;8.76;95.24
71805;BME280;59654;52.216;5.616;2023-03-14T00:27:51;98617.75;;;8.77;94.48
71805;BME280;59654;52.216;5.616;2023-03-14T00:28:22;98618.50;;;8.79;94.99
71805;BME280;59654;52.216;5.616;2023-03-14T00:28:54;98622.13;;;8.78;94.04
71805;BME280;59654;52.216;5.616;2023-03-14T00:29:26;98621.91;;;8.81;94.36
71805;BME280;59654;52.216;5.616;2023-03-14T00:29:57;98620.97;;;8.82;94.73
71805;BME280;59654;52.216;5.616;2023-03-14T00:30:28;98620.00;;;8.83;94.17
71805;BME280;59654;52.216;5.616;2023-03-14T00:31:02;98611.28;;;8.81;93.96
71805;BME280;59654;52.216;5.616;2023-03-14T00:31:34;98609.69;;;8.79;93.93
71805;BME280;59654;52.216;5.616;2023-03-14T00:32:06;98620.22;;;8.80;93.92
71805;BME280;59654;52.216;5.616;2023-03-14T00:32:37;98614.03;;;8.80;94.02
71805;BME280;59654;52.216;5.616;2023-03-14T00:33:08;98616.69;;;8.80;93.70
71805;BME280;59654;52.216;5.616;2023-03-14T00:33:39;98613.84;;;8.83;94.54
71805;BME280;59654;52.216;5.616;2023-03-14T00:34:11;98616.59;;;8.81;94.57
71805;BME280;59654;52.216;5.616;2023-03-14T00:34:41;98621.81;;;8.83;94.65
71805;BME280;59654;52.216;5.616;2023-03-14T00:35:12;98622.75;;;8.82;93.89
71805;BME280;59654;52.216;5.616;2023-03-14T00:35:43;98624.56;;;8.81;93.62
71805;BME280;59654;52.216;5.616;2023-03-14T00:36:16;98621.91;;;8.81;93.89
71805;BME280;59654;52.216;5.616;2023-03-14T00:36:48;98615.75;;;8.81;94.09
71805;BME280;59654;52.216;5.616;2023-03-14T00:37:19;98623.63;;;8.82;94.03
71805;BME280;59654;52.216;5.616;2023-03-14T00:37:50;98616.59;;;8.81;93.91
71805;BME280;59654;52.216;5.616;2023-03-14T00:38:21;98614.78;;;8.82;94.49
71805;BME280;59654;52.216;5.616;2023-03-14T00:38:53;98618.31;;;8.82;93.98
71805;BME280;59654;52.216;5.616;2023-03-14T00:39:23;98620.22;;;8.80;94.57
71805;BME280;59654;52.216;5.616;2023-03-14T00:39:55;98619.25;;;8.81;94.18
71805;BME280;59654;52.216;5.616;2023-03-14T00:40:25;98622.75;;;8.82;93.97
71805;BME280;59654;52.216;5.616;2023-03-14T00:40:56;98613.09;;;8.81;93.71
71805;BME280;59654;52.216;5.616;2023-03-14T00:41:28;98623.53;;;8.84;94.37
71805;BME280;59654;52.216;5.616;2023-03-14T00:41:59;98623.38;;;8.85;94.42
71805;BME280;59654;52.216;5.616;2023-03-14T00:42:29;98622.66;;;8.83;93.51
71805;BME280;59654;52.216;5.616;2023-03-14T00:43:02;98625.53;;;8.80;93.14
71805;BME280;59654;52.216;5.616;2023-03-14T00:43:34;98621.72;;;8.84;93.76
71805;BME280;59654;52.216;5.616;2023-03-14T00:44:05;98620.00;;;8.83;93.62
71805;BME280;59654;52.216;5.616;2023-03-14T00:44:35;98617.44;;;8.82;93.33
71805;BME280;59654;52.216;5.616;2023-03-14T00:45:11;98620.22;;;8.80;92.71
71805;BME280;59654;52.216;5.616;2023-03-14T00:45:41;98620.22;;;8.80;92.50
71805;BME280;59654;52.216;5.616;2023-03-14T00:46:13;98609.56;;;8.80;92.13
71805;BME280;59654;52.216;5.616;2023-03-14T00:46:44;98614.03;;;8.80;92.99
71805;BME280;59654;52.216;5.616;2023-03-14T00:47:14;98613.19;;;8.79;91.68
71805;BME280;59654;52.216;5.616;2023-03-14T00:47:46;98620.97;;;8.82;91.63
71805;BME280;59654;52.216;5.616;2023-03-14T00:48:19;98619.16;;;8.83;91.52
71805;BME280;59654;52.216;5.616;2023-03-14T00:48:50;98615.75;;;8.81;91.73
71805;BME280;59654;52.216;5.616;2023-03-14T00:49:21;98613.09;;;8.81;92.53
71805;BME280;59654;52.216;5.616;2023-03-14T00:49:53;98620.31;;;8.79;91.38
71805;BME280;59654;52.216;5.616;2023-03-14T00:50:24;98608.81;;;8.78;91.63
71805;BME280;59654;52.216;5.616;2023-03-14T00:50:55;98617.56;;;8.80;91.20
71805;BME280;59654;52.216;5.616;2023-03-14T00:51:26;98610.44;;;8.81;91.65
71805;BME280;59654;52.216;5.616;2023-03-14T00:51:59;98612.34;;;8.79;90.63
71805;BME280;59654;52.216;5.616;2023-03-14T00:52:30;98615.94;;;8.78;91.72
71805;BME280;59654;52.216;5.616;2023-03-14T00:53:01;98624.00;;;8.76;91.14
71805;BME280;59654;52.216;5.616;2023-03-14T00:53:36;98609.78;;;8.77;91.31
71805;BME280;59654;52.216;5.616;2023-03-14T00:54:08;98613.19;;;8.79;91.23
71805;BME280;59654;52.216;5.616;2023-03-14T00:54:40;98623.81;;;8.79;90.84
71805;BME280;59654;52.216;5.616;2023-03-14T00:55:10;98617.66;;;8.79;91.16
71805;BME280;59654;52.216;5.616;2023-03-14T00:55:42;98616.31;;;8.72;90.62
71805;BME280;59654;52.216;5.616;2023-03-14T00:56:14;98613.66;;;8.72;91.00
71805;BME280;59654;52.216;5.616;2023-03-14T00:56:45;98614.41;;;8.74;91.23
71805;BME280;59654;52.216;5.616;2023-03-14T00:57:16;98619.06;;;8.70;90.31
71805;BME280;59654;52.216;5.616;2023-03-14T00:57:47;98612.28;;;8.66;89.65
71805;BME280;59654;52.216;5.616;2023-03-14T00:58:18;98626.59;;;8.64;90.11
71805;BME280;59654;52.216;5.616;2023-03-14T00:58:49;98617.13;;;8.60;88.72
71805;BME280;59654;52.216;5.616;2023-03-14T00:59:24;98623.38;;;8.58;90.11
71805;BME280;59654;52.216;5.616;2023-03-14T00:59:55;98624.34;;;8.57;90.10
71805;BME280;59654;52.216;5.616;2023-03-14T01:00:25;98628.81;;;8.57;90.47
71805;BME280;59654;52.216;5.616;2023-03-14T01:00:58;98625.28;;;8.56;89.20
71805;BME280;59654;52.216;5.616;2023-03-14T01:01:30;98625.19;;;8.58;90.40
71805;BME280;59654;52.216;5.616;2023-03-14T01:02:00;98626.03;;;8.58;89.95
71805;BME280;59654;52.216;5.616;2023-03-14T01:02:32;98625.09;;;8.60;90.51
71805;BME280;59654;52.216;5.616;2023-03-14T01:03:04;98621.38;;;8.62;91.00
71805;BME280;59654;52.216;5.616;2023-03-14T01:03:35;98627.47;;;8.64;89.86
71805;BME280;59654;52.216;5.616;2023-03-14T01:04:06;98623.75;;;8.67;90.77
71805;BME280;59654;52.216;5.616;2023-03-14T01:04:37;98624.59;;;8.67;89.47
71805;BME280;59654;52.216;5.616;2023-03-14T01:05:09;98625.56;;;8.66;89.89
71805;BME280;59654;52.216;5.616;2023-03-14T01:05:41;98626.31;;;8.68;90.17
71805;BME280;59654;52.216;5.616;2023-03-14T01:06:16;98628.13;;;8.68;89.91
71805;BME280;59654;52.216;5.616;2023-03-14T01:06:49;98621.19;;;8.65;89.69
71805;BME280;59654;52.216;5.616;2023-03-14T01:07:20;98622.91;;;8.66;90.15
71805;BME280;59654;52.216;5.616;2023-03-14T01:07:50;98628.13;;;8.68;90.56
71805;BME280;59654;52.216;5.616;2023-03-14T01:08:21;98622.66;;;8.69;90.46
71805;BME280;59654;52.216;5.616;2023-03-14T01:08:53;98625.56;;;8.66;90.16
71805;BME280;59654;52.216;5.616;2023-03-14T01:09:24;98624.69;;;8.66;89.70
71805;BME280;59654;52.216;5.616;2023-03-14T01:09:55;98628.41;;;8.63;90.12
71805;BME280;59654;52.216;5.616;2023-03-14T01:10:27;98622.25;;;8.63;90.02
71805;BME280;59654;52.216;5.616;2023-03-14T01:10:58;98619.97;;;8.56;89.59
71805;BME280;59654;52.216;5.616;2023-03-14T01:11:34;98629.00;;;8.54;90.26
71805;BME280;59654;52.216;5.616;2023-03-14T01:12:05;98627.94;;;8.56;90.18
71805;BME280;59654;52.216;5.616;2023-03-14T01:12:36;98623.50;;;8.57;90.00
71805;BME280;59654;52.216;5.616;2023-03-14T01:13:08;98626.91;;;8.59;90.26
71805;BME280;59654;52.216;5.616;2023-03-14T01:13:40;98624.25;;;8.59;89.92
71805;BME280;59654;52.216;5.616;2023-03-14T01:14:11;98634.56;;;8.64;90.19
71805;BME280;59654;52.216;5.616;2023-03-14T01:14:42;98629.16;;;8.65;89.85
71805;BME280;59654;52.216;5.616;2023-03-14T01:15:13;98628.41;;;8.63;90.44
71805;BME280;59654;52.216;5.616;2023-03-14T01:15:43;98631.06;;;8.63;90.66
71805;BME280;59654;52.216;5.616;2023-03-14T01:16:16;98625.56;;;8.66;90.92
71805;BME280;59654;52.216;5.616;2023-03-14T01:16:48;98625.56;;;8.66;90.71
71805;BME280;59654;52.216;5.616;2023-03-14T01:17:19;98624.81;;;8.64;90.41
71805;BME280;59654;52.216;5.616;2023-03-14T01:17:50;98625.56;;;8.66;90.60
71805;BME280;59654;52.216;5.616;2023-03-14T01:18:21;98626.31;;;8.68;90.57
71805;BME280;59654;52.216;5.616;2023-03-14T01:18:54;98623.53;;;8.70;90.55
71805;BME280;59654;52.216;5.616;2023-03-14T01:19:25;98625.22;;;8.71;90.09
71805;BME280;59654;52.216;5.616;2023-03-14T01:19:56;98628.63;;;8.73;90.39
71805;BME280;59654;52.216;5.616;2023-03-14T01:20:27;98630.44;;;8.72;90.49
71805;BME280;59654;52.216;5.616;2023-03-14T01:20:58;98626.09;;;8.71;91.20
71805;BME280;59654;52.216;5.616;2023-03-14T01:21:31;98626.09;;;8.71;91.16
71805;BME280;59654;52.216;5.616;2023-03-14T01:22:03;98626.94;;;8.72;90.53
71805;BME280;59654;52.216;5.616;2023-03-14T01:22:35;98629.59;;;8.72;90.58
71805;BME280;59654;52.216;5.616;2023-03-14T01:23:09;98633.28;;;8.69;90.76
71805;BME280;59654;52.216;5.616;2023-03-14T01:23:40;98625.31;;;8.69;91.69
71805;BME280;59654;52.216;5.616;2023-03-14T01:24:12;98628.84;;;8.70;90.55
71805;BME280;59654;52.216;5.616;2023-03-14T01:24:43;98623.44;;;8.71;90.95
71805;BME280;59654;52.216;5.616;2023-03-14T01:25:16;98632.47;;;8.69;90.69
71805;BME280;59654;52.216;5.616;2023-03-14T01:25:48;98621.19;;;8.65;90.45
71805;BME280;59654;52.216;5.616;2023-03-14T01:26:22;98629.91;;;8.67;89.91
71805;BME280;59654;52.216;5.616;2023-03-14T01:26:54;98628.50;;;8.62;90.36
71805;BME280;59654;52.216;5.616;2023-03-14T01:27:27;98620.81;;;8.57;90.02
71805;BME280;59654;52.216;5.616;2023-03-14T01:27:58;98627.09;;;8.56;90.15
71805;BME280;59654;52.216;5.616;2023-03-14T01:28:32;98622.81;;;8.53;91.50
71805;BME280;59654;52.216;5.616;2023-03-14T01:29:03;98623.91;;;8.51;90.44
71805;BME280;59654;52.216;5.616;2023-03-14T01:29:36;98632.16;;;8.46;90.51
71805;BME280;59654;52.216;5.616;2023-03-14T01:30:07;98637.66;;;8.43;91.46
71805;BME280;59654;52.216;5.616;2023-03-14T01:30:39;98645.72;;;8.42;91.54
71805;BME280;59654;52.216;5.616;2023-03-14T01:31:11;98631.16;;;8.35;91.03
71805;BME280;59654;52.216;5.616;2023-03-14T01:31:42;98643.59;;;8.34;92.28
71805;BME280;59654;52.216;5.616;2023-03-14T01:32:13;98624.25;;;8.32;91.86
71805;BME280;59654;52.216;5.616;2023-03-14T01:32:44;98642.38;;;8.26;92.31
71805;BME280;59654;52.216;5.616;2023-03-14T01:33:15;98639.72;;;8.26;92.96
71805;BME280;59654;52.216;5.616;2023-03-14T01:33:48;98645.88;;;8.26;92.45
71805;BME280;59654;52.216;5.616;2023-03-14T01:34:19;98645.97;;;8.25;92.17
71805;BME280;59654;52.216;5.616;2023-03-14T01:34:50;98643.41;;;8.23;93.08
71805;BME280;59654;52.216;5.616;2023-03-14T01:35:21;98645.19;;;8.22;93.05
71805;BME280;59654;52.216;5.616;2023-03-14T01:35:52;98640.31;;;8.16;93.47
71805;BME280;59654;52.216;5.616;2023-03-14T01:36:23;98632.53;;;8.13;92.90
71805;BME280;59654;52.216;5.616;2023-03-14T01:36:54;98641.44;;;8.12;94.18
71805;BME280;59654;52.216;5.616;2023-03-14T01:37:25;98638.97;;;8.09;94.18
71805;BME280;59654;52.216;5.616;2023-03-14T01:37:56;98635.56;;;8.07;93.53
71805;BME280;59654;52.216;5.616;2023-03-14T01:38:30;98635.47;;;8.09;93.73
71805;BME280;59654;52.216;5.616;2023-03-14T01:39:05;98641.72;;;8.08;93.78
71805;BME280;59654;52.216;5.616;2023-03-14T01:39:36;98640.78;;;8.09;94.97
71805;BME280;59654;52.216;5.616;2023-03-14T01:40:10;98637.38;;;8.07;93.96
71805;BME280;59654;52.216;5.616;2023-03-14T01:40:43;98641.81;;;8.06;94.66
71805;BME280;59654;52.216;5.616;2023-03-14T01:41:19;98635.03;;;8.02;94.81
71805;BME280;59654;52.216;5.616;2023-03-14T01:41:52;98639.38;;;8.03;94.58
71805;BME280;59654;52.216;5.616;2023-03-14T01:42:22;98642.31;;;7.99;94.68
71805;BME280;59654;52.216;5.616;2023-03-14T01:43:05;98639.66;;;7.99;95.36
71805;BME280;59654;52.216;5.616;2023-03-14T01:43:37;98640.63;;;7.98;94.96
71805;BME280;59654;52.216;5.616;2023-03-14T01:44:11;98627.34;;;7.98;95.99
71805;BME280;59654;52.216;5.616;2023-03-14T01:45:00;98640.63;;;7.98;95.20
71805;BME280;59654;52.216;5.616;2023-03-14T01:46:44;98643.19;;;7.99;95.88
71805;BME280;59654;52.216;5.616;2023-03-14T01:47:18;98634.25;;;8.00;96.12
71805;BME280;59654;52.216;5.616;2023-03-14T01:47:50;98645.25;;;7.94;95.58
71805;BME280;59654;52.216;5.616;2023-03-14T01:48:21;98637.56;;;7.90;96.10
71805;BME280;59654;52.216;5.616;2023-03-14T01:48:58;98636.63;;;7.91;95.63
71805;BME280;59654;52.216;5.616;2023-03-14T01:49:39;98630.28;;;7.93;96.53
71805;BME280;59654;52.216;5.616;2023-03-14T01:50:13;98633.78;;;7.94;95.87
71805;BME280;59654;52.216;5.616;2023-03-14T01:50:45;98632.19;;;7.91;96.63
71805;BME280;59654;52.216;5.616;2023-03-14T01:52:47;98625.06;;;7.92;95.50
71805;BME280;59654;52.216;5.616;2023-03-14T01:53:20;98631.63;;;7.86;95.71
71805;BME280;59654;52.216;5.616;2023-03-14T01:53:59;98625.38;;;7.87;96.97
71805;BME280;59654;52.216;5.616;2023-03-14T01:54:42;98640.31;;;7.88;96.20
71805;BME280;59654;52.216;5.616;2023-03-14T01:55:19;98621.88;;;7.86;96.18
71805;BME280;59654;52.216;5.616;2023-03-14T01:55:55;98627.28;;;7.85;96.51
71805;BME280;59654;52.216;5.616;2023-03-14T01:56:30;98629.34;;;7.80;96.58
71805;BME280;59654;52.216;5.616;2023-03-14T01:57:10;98619.69;;;7.79;97.07
71805;BME280;59654;52.216;5.616;2023-03-14T01:57:54;98616.28;;;7.77;96.27
71805;BME280;59654;52.216;5.616;2023-03-14T01:58:31;98614.75;;;7.73;97.02
71805;BME280;59654;52.216;5.616;2023-03-14T01:59:06;98613.91;;;7.72;96.36
71805;BME280;59654;52.216;5.616;2023-03-14T01:59:43;98605.84;;;7.74;96.70
71805;BME280;59654;52.216;5.616;2023-03-14T02:00:22;98616.47;;;7.74;96.84
71805;BME280;59654;52.216;5.616;2023-03-14T02:00:57;98616.28;;;7.77;96.51
71805;BME280;59654;52.216;5.616;2023-03-14T02:01:30;98614.38;;;7.79;96.79
71805;BME280;59654;52.216;5.616;2023-03-14T02:02:02;98615.25;;;7.79;97.41
71805;BME280;59654;52.216;5.616;2023-03-14T02:02:41;98611.44;;;7.83;97.35
71805;BME280;59654;52.216;5.616;2023-03-14T02:03:20;98610.31;;;7.88;97.11
71805;BME280;59654;52.216;5.616;2023-03-14T02:03:56;98605.66;;;7.91;96.44
71805;BME280;59654;52.216;5.616;2023-03-14T02:04:34;98604.03;;;7.88;96.94
71805;BME280;59654;52.216;5.616;2023-03-14T02:05:07;98602.22;;;7.89;96.07
71805;BME280;59654;52.216;5.616;2023-03-14T02:05:41;98606.81;;;7.87;96.66
71805;BME280;59654;52.216;5.616;2023-03-14T02:06:21;98612.00;;;7.88;96.95
71805;BME280;59654;52.216;5.616;2023-03-14T02:07:56;98611.72;;;7.93;95.77
71805;BME280;59654;52.216;5.616;2023-03-14T02:08:33;98612.97;;;7.88;96.43
71805;BME280;59654;52.216;5.616;2023-03-14T02:09:09;98618.91;;;7.91;96.31
71805;BME280;59654;52.216;5.616;2023-03-14T02:09:41;98612.00;;;7.88;96.05
71805;BME280;59654;52.216;5.616;2023-03-14T02:10:18;98610.09;;;7.91;96.95
71805;BME280;59654;52.216;5.616;2023-03-14T02:10:51;98617.19;;;7.90;96.23
71805;BME280;59654;52.216;5.616;2023-03-14T02:11:49;98610.84;;;7.93;96.87
71805;BME280;59654;52.216;5.616;2023-03-14T02:12:42;98610.00;;;7.92;96.47
71805;BME280;59654;52.216;5.616;2023-03-14T02:13:33;98614.66;;;7.88;96.22
71805;BME280;59654;52.216;5.616;2023-03-14T02:14:32;98604.03;;;7.88;96.05
71805;BME280;59654;52.216;5.616;2023-03-14T02:15:24;98608.47;;;7.88;96.09
71805;BME280;59654;52.216;5.616;2023-03-14T02:16:05;98612.56;;;7.94;95.84
71805;BME280;59654;52.216;5.616;2023-03-14T02:16:45;98609.06;;;7.93;96.23
71805;BME280;59654;52.216;5.616;2023-03-14T02:17:29;98610.00;;;7.92;96.36
71805;BME280;59654;52.216;5.616;2023-03-14T02:18:12;98606.50;;;7.92;95.94
71805;BME280;59654;52.216;5.616;2023-03-14T02:19:06;98615.50;;;7.89;95.72
71805;BME280;59654;52.216;5.616;2023-03-14T02:20:54;98611.03;;;7.90;95.77
71805;BME280;59654;52.216;5.616;2023-03-14T02:22:08;98600.91;;;7.96;95.87
71805;BME280;59654;52.216;5.616;2023-03-14T02:22:47;98612.19;;;8.00;95.81
71805;BME280;59654;52.216;5.616;2023-03-14T02:23:31;98602.72;;;7.96;95.08
71805;BME280;59654;52.216;5.616;2023-03-14T02:24:42;98610.94;;;7.91;95.68
71805;BME280;59654;52.216;5.616;2023-03-14T02:25:38;98595.88;;;7.92;95.95
71805;BME280;59654;52.216;5.616;2023-03-14T02:26:37;98599.09;;;7.97;95.35
71805;BME280;59654;52.216;5.616;2023-03-14T02:27:18;98608.78;;;7.98;94.99
71805;BME280;59654;52.216;5.616;2023-03-14T02:27:50;98598.06;;;7.99;94.94
71805;BME280;59654;52.216;5.616;2023-03-14T02:28:22;98604.22;;;8.00;94.89
71805;BME280;59654;52.216;5.616;2023-03-14T02:28:58;98601.00;;;7.95;94.96
71805;BME280;59654;52.216;5.616;2023-03-14T02:29:31;98595.88;;;7.92;95.86
71805;BME280;59654;52.216;5.616;2023-03-14T02:30:31;98594.19;;;7.91;95.99
71805;BME280;59654;52.216;5.616;2023-03-14T02:31:02;98595.97;;;7.90;95.75
71805;BME280;59654;52.216;5.616;2023-03-14T02:31:38;98592.28;;;7.93;95.69
71805;BME280;59654;52.216;5.616;2023-03-14T02:32:09;98591.53;;;7.91;95.33
71805;BME280;59654;52.216;5.616;2023-03-14T02:32:47;98598.44;;;7.93;96.33
71805;BME280;59654;52.216;5.616;2023-03-14T02:33:21;98593.03;;;7.95;95.84
71805;BME280;59654;52.216;5.616;2023-03-14T02:33:53;98601.09;;;7.93;95.12
71805;BME280;59654;52.216;5.616;2023-03-14T02:34:25;98596.81;;;7.91;95.14
71805;BME280;59654;52.216;5.616;2023-03-14T02:34:59;98594.09;;;7.92;95.04
71805;BME280;59654;52.216;5.616;2023-03-14T02:36:14;98600.16;;;7.94;95.55
71805;BME280;59654;52.216;5.616;2023-03-14T02:36:47;98597.50;;;7.94;95.70
71805;BME280;59654;52.216;5.616;2023-03-14T02:37:21;98599.19;;;7.95;95.36
71805;BME280;59654;52.216;5.616;2023-03-14T02:38:00;98593.91;;;7.95;94.64
71805;BME280;59654;52.216;5.616;2023-03-14T02:39:20;98601.75;;;7.97;95.05
71805;BME280;59654;52.216;5.616;2023-03-14T02:39:57;98599.09;;;7.97;95.11
71805;BME280;59654;52.216;5.616;2023-03-14T02:40:29;98594.84;;;7.94;94.71
71805;BME280;59654;52.216;5.616;2023-03-14T02:41:00;98593.03;;;7.95;95.15
71805;BME280;59654;52.216;5.616;2023-03-14T02:41:33;98589.44;;;7.96;95.48
71805;BME280;59654;52.216;5.616;2023-03-14T02:42:08;98590.19;;;7.98;95.11
71805;BME280;59654;52.216;5.616;2023-03-14T02:42:40;98588.22;;;8.01;94.73
71805;BME280;59654;52.216;5.616;2023-03-14T02:43:11;98584.81;;;7.99;94.39
71805;BME280;59654;52.216;5.616;2023-03-14T02:43:46;98589.16;;;8.00;94.50
71805;BME280;59654;52.216;5.616;2023-03-14T02:44:18;98596.94;;;8.03;95.21
71805;BME280;59654;52.216;5.616;2023-03-14T02:45:45;98587.53;;;7.98;94.46
71805;BME280;59654;52.216;5.616;2023-03-14T02:46:21;98585.00;;;7.96;94.41
71805;BME280;59654;52.216;5.616;2023-03-14T02:46:53;98577.13;;;7.95;94.34
71805;BME280;59654;52.216;5.616;2023-03-14T02:47:28;98579.78;;;7.95;94.45
71805;BME280;59654;52.216;5.616;2023-03-14T02:48:06;98584.03;;;7.97;95.09
71805;BME280;59654;52.216;5.616;2023-03-14T02:48:48;98578.81;;;7.96;94.38
71805;BME280;59654;52.216;5.616;2023-03-14T02:49:27;98573.31;;;7.99;94.86
71805;BME280;59654;52.216;5.616;2023-03-14T02:50:11;98581.94;;;8.02;94.21
71805;BME280;59654;52.216;5.616;2023-03-14T02:50:47;98576.84;;;7.99;94.25
71805;BME280;59654;52.216;5.616;2023-03-14T02:51:20;98577.59;;;8.01;94.92
71805;BME280;59654;52.216;5.616;2023-03-14T02:51:52;98583.66;;;8.03;94.29
71805;BME280;59654;52.216;5.616;2023-03-14T02:52:23;98582.81;;;8.03;94.19
71805;BME280;59654;52.216;5.616;2023-03-14T02:52:54;98575.69;;;8.03;94.84
71805;BME280;59654;52.216;5.616;2023-03-14T02:53:29;98581.19;;;8.00;94.31
71805;BME280;59654;52.216;5.616;2023-03-14T02:54:05;98578.34;;;8.03;95.22
71805;BME280;59654;52.216;5.616;2023-03-14T02:54:36;98578.53;;;8.00;94.27
71805;BME280;59654;52.216;5.616;2023-03-14T02:55:08;98573.31;;;7.99;94.53
71805;BME280;59654;52.216;5.616;2023-03-14T02:55:46;98575.97;;;7.99;94.57
71805;BME280;59654;52.216;5.616;2023-03-14T02:56:19;98573.25;;;8.00;94.44
71805;BME280;59654;52.216;5.616;2023-03-14T02:56:49;98577.78;;;7.98;94.17
71805;BME280;59654;52.216;5.616;2023-03-14T02:57:20;98571.63;;;7.98;94.02
71805;BME280;59654;52.216;5.616;2023-03-14T02:57:52;98575.03;;;8.00;94.62
71805;BME280;59654;52.216;5.616;2023-03-14T02:58:23;98574.19;;;7.99;94.67
71805;BME280;59654;52.216;5.616;2023-03-14T02:59:02;98576.75;;;8.01;94.22
71805;BME280;59654;52.216;5.616;2023-03-14T02:59:49;98580.34;;;8.00;94.22
71805;BME280;59654;52.216;5.616;2023-03-14T03:00:23;98576.66;;;8.02;94.37
71805;BME280;59654;52.216;5.616;2023-03-14T03:00:54;98587.16;;;8.04;94.00
71805;BME280;59654;52.216;5.616;2023-03-14T03:01:27;98582.69;;;8.04;94.20
71805;BME280;59654;52.216;5.616;2023-03-14T03:01:59;98575.47;;;8.06;93.90
71805;BME280;59654;52.216;5.616;2023-03-14T03:02:31;98570.16;;;8.06;93.86
71805;BME280;59654;52.216;5.616;2023-03-14T03:03:02;98569.13;;;8.09;94.70
71805;BME280;59654;52.216;5.616;2023-03-14T03:03:33;98570.06;;;8.08;93.85
71805;BME280;59654;52.216;5.616;2023-03-14T03:04:04;98571.13;;;8.05;94.58
71805;BME280;59654;52.216;5.616;2023-03-14T03:04:35;98580.03;;;8.04;95.03
71805;BME280;59654;52.216;5.616;2023-03-14T03:05:06;98579.31;;;8.02;94.91
71805;BME280;59654;52.216;5.616;2023-03-14T03:05:38;98576.66;;;8.02;94.41
71805;BME280;59654;52.216;5.616;2023-03-14T03:06:09;98575.69;;;8.03;94.55
71805;BME280;59654;52.216;5.616;2023-03-14T03:06:40;98577.50;;;8.03;94.35
71805;BME280;59654;52.216;5.616;2023-03-14T03:07:12;98580.88;;;8.05;95.36
71805;BME280;59654;52.216;5.616;2023-03-14T03:07:42;98581.72;;;8.05;94.53
71805;BME280;59654;52.216;5.616;2023-03-14T03:08:14;98569.97;;;8.09;95.09
71805;BME280;59654;52.216;5.616;2023-03-14T03:08:45;98571.88;;;8.07;94.72